Data for 06/21/2005

Time Sea-Level Adjusted Pressure Absolute Pressure Temperature Relative Humidity Dew Point   
(mb) (inHg) (mb) (inHg) (C) (F) (%) (C) (F)
00:05 1022 30.18 851 25.13 20.9 69.6 27 1.5 34.7
00:10 1022 30.18 851 25.13 20.5 68.9 29 2.1 35.7
00:15 1022 30.18 851 25.13 20.5 68.8 25 0.1 32.1
00:20 1022 30.18 851 25.13 20.5 69 26 0.7 33.2
00:25 1022 30.18 851 25.13 20.9 69.6 28 2 35.6
00:30 1022 30.18 851 25.13 20.2 68.4 27 0.9 33.6
00:35 1022 30.18 851 25.13 20.3 68.5 29 1.9 35.4
00:40 1022 30.18 851 25.13 19.9 67.8 28 1.2 34.2
00:45 1022 30.18 851 25.13 19.9 67.8 29 1.5 34.8
00:50 1022 30.18 851 25.13 19.7 67.5 28 0.9 33.6
00:55 1022 30.18 851 25.13 19.8 67.6 29 1.5 34.7
01:00 1022 30.18 851 25.13 19.5 67.1 29 1.1 34
01:05 1022 30.18 851 25.13 19.6 67.2 29 1.1 33.9
01:10 1021 30.15 851 25.13 19.7 67.5 29 1.4 34.4
01:15 1021 30.15 851 25.13 19.2 66.6 30 1.4 34.5
01:20 1021 30.15 851 25.13 19.7 67.4 30 1.9 35.5
01:25 1021 30.15 851 25.13 19 66.1 30 1.3 34.3
01:30 1021 30.15 851 25.13 19.2 66.5 30 1.4 34.6
01:35 1021 30.15 851 25.13 19.2 66.5 30 1.3 34.4
01:40 1021 30.15 851 25.13 19 66.1 32 1.9 35.4
01:45 1021 30.15 851 25.13 18.4 65.2 33 2.2 35.9
01:50 1021 30.15 851 25.13 17.9 64.2 34 1.9 35.5
01:55 1021 30.15 851 25.13 18 64.3 33 1.6 34.9
02:00 1021 30.15 850 25.1 18.4 65.1 31 1.3 34.3
02:05 1021 30.15 851 25.13 18.6 65.6 32 1.6 34.8
02:10 1021 30.15 851 25.13 18.5 65.3 31 1.3 34.4
02:15 1021 30.15 851 25.13 18.6 65.5 31 1.5 34.6
02:20 1022 30.18 851 25.13 18.5 65.4 31 1.3 34.4
02:25 1021 30.15 851 25.13 18.6 65.5 31 1.4 34.5
02:30 1021 30.15 851 25.13 18.6 65.5 31 1.5 34.7
02:35 1021 30.15 851 25.13 18.5 65.3 31 1.4 34.5
02:40 1021 30.15 851 25.13 18.1 64.5 35 2.5 36.4
02:45 1022 30.18 851 25.13 17.2 62.9 38 2.8 37
02:50 1021 30.15 851 25.13 17.4 63.4 33 0.9 33.7
02:55 1022 30.18 851 25.13 18.5 65.2 30 0.9 33.7
03:00 1022 30.18 851 25.13 18.7 65.6 31 1.3 34.3
03:05 1022 30.18 851 25.13 18.4 65.2 32 1.4 34.5
03:10 1022 30.18 851 25.13 18.2 64.8 32 1.4 34.4
03:15 1022 30.18 851 25.13 18 64.5 33 1.7 35
03:20 1022 30.18 851 25.13 17.7 63.9 34 1.6 34.8
03:25 1022 30.18 851 25.13 17.3 63.2 35 1.8 35.3
03:30 1022 30.18 851 25.13 17.2 62.9 35 1.6 34.9
03:35 1022 30.18 851 25.13 17 62.6 35 1.5 34.7
03:40 1022 30.18 851 25.13 17.2 62.9 35 1.7 35
03:45 1022 30.18 851 25.13 17.4 63.3 33 1.1 34
03:50 1022 30.18 851 25.13 17.7 63.9 32 1.1 34
03:55 1022 30.18 851 25.13 17.8 64.1 32 1.2 34.1
04:00 1022 30.18 851 25.13 17.7 63.8 34 1.8 35.3
04:05 1022 30.18 851 25.13 17.1 62.8 41 3.8 38.8
04:10 1022 30.18 851 25.13 16.7 62 36 1.7 35
04:15 1022 30.18 851 25.13 16.9 62.3 35 1.4 34.5
04:20 1022 30.18 851 25.13 17 62.5 35 1.4 34.5
04:25 1022 30.18 851 25.13 17.2 62.9 34 1.4 34.5
04:30 1022 30.18 851 25.13 17.5 63.4 34 1.4 34.5
04:35 1022 30.18 851 25.13 17.2 63 35 1.7 35.1
04:40 1022 30.18 851 25.13 16.9 62.4 36 1.7 35.1
04:45 1022 30.18 851 25.13 16.8 62.3 36 1.8 35.2
04:50 1022 30.18 851 25.13 16.8 62.3 36 1.6 34.9
04:55 1022 30.18 851 25.13 16.9 62.5 35 1.4 34.5
05:00 1022 30.18 851 25.13 17.1 62.7 35 1.5 34.7
05:05 1022 30.18 851 25.13 17.1 62.8 42 4.1 39.4
05:10 1022 30.18 851 25.13 16.9 62.4 36 1.7 35
05:15 1022 30.18 851 25.13 16.9 62.4 35 1.6 34.8
05:20 1022 30.18 851 25.13 16.9 62.4 40 3.3 37.9
05:25 1022 30.18 851 25.13 16.9 62.5 36 1.9 35.4
05:30 1022 30.18 851 25.13 16.7 62 37 2 35.7
05:35 1022 30.18 851 25.13 16.5 61.7 37 2 35.7
05:40 1022 30.18 851 25.13 16.6 61.9 38 2.3 36.1
05:45 1022 30.18 851 25.13 16.6 61.8 38 2.1 35.9
05:50 1022 30.18 851 25.13 16.6 61.9 37 1.8 35.2
05:55 1022 30.18 851 25.13 16.8 62.3 36 1.7 35.1
06:00 1022 30.18 851 25.13 17 62.5 37 2.1 35.9
06:05 1022 30.18 851 25.13 16.9 62.4 37 2.4 36.3
06:10 1022 30.18 851 25.13 16.9 62.3 37 2.3 36.1
06:15 1022 30.18 851 25.13 16.7 62 39 2.6 36.7
06:20 1022 30.18 851 25.13 16.7 62 38 2.6 36.6
06:25 1022 30.18 851 25.13 17 62.7 37 2.3 36.1
06:30 1022 30.18 851 25.13 17.3 63.1 36 2.2 36
06:35 1022 30.18 851 25.13 17.3 63.2 39 3.2 37.8
06:40 1022 30.18 851 25.13 17 62.7 40 3.3 37.9
06:45 1022 30.18 851 25.13 17.1 62.8 39 3.3 37.9
06:50 1022 30.18 851 25.13 17.6 63.6 38 3.2 37.8
06:55 1022 30.18 851 25.13 17.6 63.7 37 3 37.3
07:00 1022 30.18 851 25.13 17.8 64 38 3.2 37.8
07:05 1022 30.18 851 25.13 18.1 64.5 37 3.2 37.8
07:10 1022 30.18 851 25.13 18.1 64.5 38 3.7 38.7
07:15 1022 30.18 851 25.13 18.2 64.8 37 3.5 38.4
07:20 1022 30.18 851 25.13 18.1 64.6 40 4.4 39.9
07:25 1022 30.18 851 25.13 18 64.3 40 4.2 39.5
07:30 1022 30.18 852 25.16 18.5 65.3 38 3.9 39.1
07:35 1022 30.18 852 25.16 18.7 65.7 41 5.2 41.3
07:40 1022 30.18 851 25.13 18.7 65.6 40 5 41
07:45 1022 30.18 851 25.13 18.6 65.5 41 5.1 41.2
07:50 1022 30.18 851 25.13 18.9 66.1 42 5.8 42.4
07:55 1022 30.18 851 25.13 19.5 67 39 5.2 41.4
08:00 1022 30.18 851 25.13 19.9 67.8 38 5.5 41.8
08:05 1022 30.18 851 25.13 20.5 68.9 36 4.9 40.9
08:10 1022 30.18 851 25.13 21 69.8 33 4.4 39.9
08:15 1022 30.18 851 25.13 21.4 70.4 33 4.5 40.1
08:20 1022 30.18 851 25.13 21.8 71.2 34 5.5 41.8
08:25 1022 30.18 851 25.13 22 71.6 37 6.8 44.2
08:30 1022 30.18 852 25.16 22.3 72.2 35 6.2 43.2
08:35 1022 30.18 851 25.13 22.2 71.9 40 8.1 46.5
08:40 1022 30.18 851 25.13 22.5 72.6 34 6.2 43.1
08:45 1022 30.18 851 25.13 23 73.5 33 6.2 43.2
08:50 1022 30.18 851 25.13 24 75.3 31 6.2 43.1
08:55 1022 30.18 851 25.13 24.5 76.1 30 6.1 43
09:00 1022 30.18 851 25.13 23.3 73.9 33 6.1 43.1
09:05 1022 30.18 851 25.13 23.4 74 31 5.7 42.3
09:10 1022 30.18 851 25.13 23 73.4 32 5.7 42.3
09:15 1022 30.18 851 25.13 23.1 73.6 30 4.9 40.8
09:20 1022 30.18 851 25.13 22.6 72.7 30 4.6 40.2
09:25 1022 30.18 851 25.13 22.8 73 31 5.1 41.2
09:30 1022 30.18 851 25.13 23.6 74.5 29 5 41
09:35 1022 30.18 851 25.13 24.5 76.2 28 5.3 41.5
09:40 1022 30.18 851 25.13 24.8 76.7 28 5.1 41.2
09:45 1022 30.18 851 25.13 24.8 76.6 30 6.5 43.6
09:50 1022 30.18 851 25.13 24.6 76.2 31 6.4 43.6
09:55 1022 30.18 851 25.13 25.1 77.2 30 6.4 43.5
10:00 1022 30.18 851 25.13 24.3 75.7 33 7.3 45.2
10:05 1022 30.18 851 25.13 24.4 75.8 32 6.8 44.3
10:10 1022 30.18 851 25.13 24.8 76.7 33 7.6 45.7
10:15 1022 30.18 851 25.13 23.7 74.7 36 7.9 46.2
10:20 1022 30.18 851 25.13 24.2 75.6 33 7.1 44.8
10:25 1022 30.18 851 25.13 25.5 77.9 30 7.1 44.8
10:30 1022 30.18 851 25.13 24.6 76.2 33 7.6 45.7
10:35 1022 30.18 851 25.13 24.9 76.7 31 7 44.6
10:40 1022 30.18 851 25.13 24.9 76.8 32 7.1 44.8
10:45 1022 30.18 851 25.13 24.9 76.8 33 7.6 45.6
10:50 1021 30.15 851 25.13 24.8 76.6 32 7.2 45
10:55 1021 30.15 851 25.13 25.2 77.3 30 6.7 44
11:00 1021 30.15 851 25.13 25.7 78.3 32 7.9 46.2
11:05 1021 30.15 850 25.1 25.4 77.8 32 8 46.3
11:10 1021 30.15 850 25.1 25.4 77.8 33 8.4 47.1
11:15 1021 30.15 850 25.1 26.3 79.3 31 8 46.4
11:20 1021 30.15 850 25.1 27.3 81.2 29 8 46.4
11:25 1021 30.15 850 25.1 27.3 81.1 30 8.5 47.3
11:30 1021 30.15 850 25.1 27 80.6 30 8 46.5
11:35 1021 30.15 850 25.1 28.2 82.7 29 8.5 47.4
11:40 1021 30.15 850 25.1 28.8 83.8 28 8.8 47.8
11:45 1021 30.15 850 25.1 28.9 84.1 27 8.5 47.4
11:50 1021 30.15 850 25.1 28.3 83 29 8.8 47.9
11:55 1021 30.15 850 25.1 28.8 83.8 27 8.2 46.8
12:00 1021 30.15 850 25.1 28.7 83.6 28 8.7 47.7
12:05 1021 30.15 850 25.1 29.5 85.1 26 8.6 47.5
12:10 1021 30.15 850 25.1 30.3 86.6 26 8.8 47.9
12:15 1021 30.15 850 25.1 30.8 87.5 24 8.5 47.4
12:20 1021 30.15 850 25.1 29.8 85.6 26 8.7 47.6
12:25 1020 30.12 850 25.1 30.3 86.6 25 8.7 47.7
12:30 1020 30.12 850 25.1 30.1 86.1 26 8.7 47.7
12:35 1020 30.12 849 25.07 29.4 84.8 28 9.1 48.4
12:40 1020 30.12 849 25.07 30.5 87 25 8.6 47.4
12:45 1020 30.12 849 25.07 31.2 88.2 26 9.6 49.3
12:50 1020 30.12 849 25.07 30.8 87.4 27 9.9 49.8
12:55 1020 30.12 849 25.07 30.5 87 29 10.7 51.3
13:00 1020 30.12 849 25.07 29.8 85.6 29 10.2 50.4
13:05 1020 30.12 849 25.07 29.7 85.5 29 10.3 50.5
13:10 1020 30.12 849 25.07 30.3 86.6 28 10.3 50.6
13:15 1020 30.12 849 25.07 30.3 86.5 28 10.1 50.2
13:20 1020 30.12 849 25.07 30.4 86.6 28 10.3 50.5
13:25 1020 30.12 849 25.07 29.9 85.7 30 10.5 50.9
13:30 1020 30.12 849 25.07 28.6 83.4 32 10.5 50.9
13:35 1020 30.12 849 25.07 28 82.3 33 10.3 50.6
13:40 1020 30.12 849 25.07 28.4 83.1 36 12.3 54.1
13:45 1020 30.12 849 25.07 28.2 82.7 35 11.6 52.8
13:50 1020 30.12 849 25.07 28 82.4 28 7.9 46.1
13:55 1020 30.12 849 25.07 28.2 82.7 39 13.1 55.6
14:00 1020 30.12 849 25.07 28 82.4 42 14 57.2
14:05 1020 30.12 849 25.07 27.6 81.6 42 13.8 56.8
14:10 1020 30.12 849 25.07 28.1 82.5 36 11.7 53.1
14:15 1019 30.09 849 25.07 28.2 82.7 31 9.7 49.4
14:20 1019 30.09 849 25.07 28.5 83.3 35 12 53.6
14:25 1020 30.12 849 25.07 28.6 83.5 36 12.2 53.9
14:30 1020 30.12 849 25.07 28.8 83.9 44 15.6 60.1
14:35 1020 30.12 849 25.07 29 84.2 38 13.4 56.1
14:40 1019 30.09 849 25.07 30.2 86.3 35 13.4 56.1
14:45 1019 30.09 848 25.04 30.8 87.5 34 13.7 56.6
14:50 1019 30.09 848 25.04 30.8 87.5 27 9.9 49.8
14:55 1019 30.09 848 25.04 31.5 88.7 23 8.1 46.6
15:00 1019 30.09 848 25.04 31.1 88 24 8.4 47.2
15:05 1019 30.09 848 25.04 30.6 87.1 25 8.7 47.7
15:10 1019 30.09 848 25.04 30.6 87 26 9 48.3
15:15 1019 30.09 848 25.04 30.6 87.1 24 7.9 46.3
15:20 1019 30.09 848 25.04 30.7 87.3 24 7.9 46.3
15:25 1019 30.09 848 25.04 30.7 87.2 23 7.6 45.7
15:30 1019 30.09 848 25.04 30.7 87.2 23 7.7 45.8
15:35 1019 30.09 848 25.04 30.7 87.2 24 8.3 46.9
15:40 1019 30.09 848 25.04 30.7 87.2 23 7.6 45.7
15:45 1019 30.09 848 25.04 30.7 87.2 24 8.1 46.7
15:50 1019 30.09 848 25.04 30.9 87.5 25 8.7 47.6
15:55 1019 30.09 848 25.04 29.9 85.9 27 9.4 48.9
16:00 1019 30.09 849 25.07 29.6 85.2 29 9.7 49.5
16:05 1019 30.09 849 25.07 29.4 85 30 10.6 51.1
16:10 1019 30.09 849 25.07 29 84.2 31 10.5 50.8
16:15 1019 30.09 849 25.07 29.1 84.4 32 10.9 51.6
16:20 1020 30.12 849 25.07 28.9 84 27 8.1 46.6
16:25 1020 30.12 849 25.07 29.1 84.3 30 10 50
16:30 1020 30.12 849 25.07 28.9 83.9 29 9.6 49.3
16:35 1020 30.12 849 25.07 28.9 84 30 10 50
16:40 1020 30.12 849 25.07 28.8 83.9 30 9.9 49.9
16:45 1020 30.12 849 25.07 28.9 84.1 31 10.6 51
16:50 1020 30.12 849 25.07 29 84.3 31 10.5 50.9
16:55 1020 30.12 849 25.07 29.1 84.3 30 10.3 50.5
17:00 1020 30.12 849 25.07 28.6 83.5 32 10.8 51.4
17:05 1020 30.12 849 25.07 28.7 83.6 30 9.4 49
17:10 1019 30.09 849 25.07 28.8 83.8 32 10.6 51.1
17:15 1019 30.09 849 25.07 28.6 83.4 33 11 51.8
17:20 1019 30.09 848 25.04 28.3 83 34 11.1 52
17:25 1019 30.09 848 25.04 27.8 82 36 11.5 52.7
17:30 1019 30.09 848 25.04 27.3 81.2 39 12.3 54.2
17:35 1019 30.09 848 25.04 27.2 80.9 31 9 48.3
17:40 1019 30.09 849 25.07 27.4 81.4 30 8.6 47.5
17:45 1019 30.09 849 25.07 27.2 81 32 9.6 49.2
17:50 1019 30.09 848 25.04 27 80.5 34 10.2 50.4
17:55 1019 30.09 848 25.04 26.7 80.1 36 10.7 51.3
18:00 1019 30.09 848 25.04 26.6 79.8 36 10.3 50.6
18:05 1019 30.09 848 25.04 26.4 79.5 34 9.7 49.5
18:10 1019 30.09 848 25.04 26.6 79.8 34 9.7 49.4
18:15 1019 30.09 848 25.04 27 80.5 34 10 50
18:20 1019 30.09 848 25.04 27.5 81.5 32 9.7 49.5
18:25 1019 30.09 848 25.04 27.1 80.8 33 9.8 49.6
18:30 1019 30.09 848 25.04 27 80.6 32 9.4 48.8
18:35 1019 30.09 848 25.04 27.2 80.9 32 9.4 48.9
18:40 1019 30.09 848 25.04 27.3 81.1 35 10.9 51.7
18:45 1019 30.09 848 25.04 27 80.7 38 11.8 53.3
18:50 1018 30.06 848 25.04 26.7 80.1 37 11.1 52.1
18:55 1018 30.06 848 25.04 26.6 79.9 34 9.7 49.5
19:00 1018 30.06 847 25.01 26.5 79.6 33 9.3 48.8
19:05 1018 30.06 847 25.01 26.3 79.4 33 9 48.2
19:10 1018 30.06 847 25.01 26.2 79.1 34 9.2 48.5
19:15 1018 30.06 847 25.01 26.1 78.9 33 9 48.2
19:20 1018 30.06 847 25.01 26.2 79.2 33 9 48.3
19:25 1018 30.06 847 25.01 26.2 79.1 33 8.8 47.8
19:30 1018 30.06 847 25.01 26 78.8 31 8 46.4
19:35 1018 30.06 847 25.01 26.3 79.4 32 8.4 47.2
19:40 1018 30.06 847 25.01 26.6 79.8 32 8.7 47.6
19:45 1018 30.06 847 25.01 26.8 80.3 34 9.8 49.6
19:50 1018 30.06 847 25.01 27 80.6 30 8.1 46.5
19:55 1018 30.06 847 25.01 26.9 80.5 35 10.4 50.7
20:00 1018 30.06 847 25.01 26.4 79.6 34 9.5 49
20:05 1018 30.06 847 25.01 26.5 79.8 32 8.8 47.8
20:10 1018 30.06 847 25.01 27 80.7 28 7.1 44.8
20:15 1018 30.06 847 25.01 27.4 81.3 26 6.4 43.5
20:20 1018 30.06 847 25.01 27.5 81.4 27 6.9 44.4
20:25 1018 30.06 847 25.01 27.3 81.2 26 6.3 43.4
20:30 1018 30.06 847 25.01 27.2 80.9 25 5.5 41.8
20:35 1018 30.06 847 25.01 27.2 80.9 24 5.3 41.5
20:40 1018 30.06 847 25.01 27.1 80.7 24 5.1 41.1
20:45 1018 30.06 847 25.01 26.7 80.1 29 7.4 45.3
20:50 1018 30.06 847 25.01 26.3 79.4 27 6 42.7
20:55 1018 30.06 847 25.01 26.3 79.3 27 5.9 42.6
21:00 1018 30.06 847 25.01 26.5 79.7 26 5.7 42.3
21:05 1018 30.06 847 25.01 26.3 79.4 29 7.3 45.1
21:10 1018 30.06 847 25.01 25.8 78.4 29 6.8 44.2
21:15 1018 30.06 847 25.01 25.4 77.7 32 7.7 45.9
21:20 1018 30.06 847 25.01 24.6 76.2 36 8.8 47.8
21:25 1018 30.06 847 25.01 24.1 75.4 40 10 49.9
21:30 1018 30.06 847 25.01 23.7 74.6 39 9.2 48.6
21:35 1018 30.06 847 25.01 23.4 74 37 8.1 46.6
21:40 1018 30.06 847 25.01 23.6 74.4 38 8.5 47.2
21:45 1018 30.06 847 25.01 23.8 74.8 34 7.3 45.2
21:50 1018 30.06 847 25.01 23.9 74.9 32 6.5 43.7
21:55 1018 30.06 847 25.01 24.4 76 29 5.7 42.3
22:00 1018 30.06 848 25.04 24.5 76.1 30 6 42.7
22:05 1018 30.06 848 25.04 24.1 75.3 32 6.5 43.7
22:10 1018 30.06 848 25.04 23.4 74.2 36 7.8 46.1
22:15 1019 30.09 848 25.04 23.4 74.2 32 5.9 42.6
22:20 1019 30.09 848 25.04 23.4 74.1 32 5.9 42.6
22:25 1019 30.09 848 25.04 23.4 74.1 31 5.7 42.2
22:30 1019 30.09 848 25.04 23.8 74.8 30 5.1 41.3
22:35 1019 30.09 848 25.04 24.2 75.5 29 5.4 41.8
22:40 1019 30.09 848 25.04 24.1 75.4 28 4.8 40.6
22:45 1019 30.09 848 25.04 24.5 76.1 29 5.4 41.7
22:50 1019 30.09 848 25.04 24.7 76.4 30 6.1 43.1
22:55 1019 30.09 848 25.04 24.3 75.7 30 6 42.8
23:00 1019 30.09 848 25.04 24.1 75.3 31 6.2 43.2
23:05 1019 30.09 848 25.04 24 75.1 32 6.5 43.7
23:10 1019 30.09 848 25.04 24.1 75.5 32 6.8 44.2
23:15 1019 30.09 848 25.04 24.1 75.3 33 6.9 44.4
23:20 1019 30.09 848 25.04 23.9 75 32 6.5 43.7
23:25 1019 30.09 849 25.07 23.9 75.1 33 6.7 44
23:30 1020 30.12 849 25.07 24.2 75.5 32 6.9 44.4
23:35 1021 30.15 850 25.1 23.6 74.4 32 6.3 43.4
23:40 1021 30.15 850 25.1 23.1 73.6 34 6.7 44
23:45 1022 30.18 851 25.13 21.5 70.7 56 12.6 54.6
23:50 1022 30.18 851 25.13 18.3 64.9 63 11.1 52
23:55 1021 30.15 851 25.13 17.9 64.3 61 10.4 50.7
24:00 1021 30.15 850 25.1 17.8 64.1 64 11 51.8